createdAt,value
2022-11-16T00:00:06.061Z,25.1
2022-11-16T00:01:08.287Z,25
2022-11-16T00:02:10.534Z,25
2022-11-16T00:03:12.878Z,25
2022-11-16T00:04:15.078Z,25.1
2022-11-16T00:05:17.003Z,25
2022-11-16T00:06:18.357Z,25
2022-11-16T00:07:20.927Z,25.1
2022-11-16T00:08:23.870Z,25.1
2022-11-16T00:09:26.349Z,25.2
2022-11-16T00:10:28.829Z,25.2
2022-11-16T00:11:31.036Z,25.1
2022-11-16T00:12:32.734Z,25.3
2022-11-16T00:13:34.930Z,25
2022-11-16T00:14:37.417Z,25.3
2022-11-16T00:15:39.628Z,25.3
2022-11-16T00:16:41.545Z,25.4
2022-11-16T00:17:44.076Z,25.4
2022-11-16T00:18:46.548Z,25.3
2022-11-16T00:19:49.022Z,25.4
2022-11-16T00:20:51.499Z,25.1
2022-11-16T00:21:53.982Z,25.3
2022-11-16T00:22:56.554Z,25.2
2022-11-16T00:23:59.029Z,25.3
2022-11-16T00:25:01.231Z,25.3
2022-11-16T00:26:03.698Z,25.3
2022-11-16T00:27:06.168Z,25.2
2022-11-16T00:28:08.392Z,25.3
2022-11-16T00:29:10.874Z,25.3
2022-11-16T00:30:13.426Z,25.2
2022-11-16T00:31:15.643Z,25.3
2022-11-16T00:32:17.279Z,25.2
2022-11-16T00:33:19.502Z,25.3
2022-11-16T00:34:21.697Z,25.3
2022-11-16T00:35:24.184Z,25.3
2022-11-16T00:36:26.660Z,25.2
2022-11-16T00:37:28.610Z,25.2
2022-11-16T00:38:31.600Z,25.5
2022-11-16T00:39:36.400Z,25.4
2022-11-16T00:40:38.088Z,25.2
2022-11-16T00:41:40.601Z,25.4
2022-11-16T00:42:43.124Z,25.4
2022-11-16T00:43:45.619Z,25.6
2022-11-16T00:44:48.103Z,25.4
2022-11-16T00:45:50.570Z,25.2
2022-11-16T00:46:53.046Z,25.3
2022-11-16T00:48:00.244Z,25.3
2022-11-16T00:49:00.509Z,25.4
2022-11-16T00:50:02.457Z,25.2
2022-11-16T00:51:04.677Z,25.4
2022-11-16T00:52:06.865Z,25.3
2022-11-16T00:53:09.060Z,25.3
2022-11-16T00:54:11.583Z,25.2
2022-11-16T00:55:13.793Z,25.4
2022-11-16T00:56:15.980Z,25.2
2022-11-16T00:57:18.178Z,25.2
2022-11-16T00:58:20.649Z,25.4
2022-11-16T00:59:22.594Z,25.3
2022-11-16T01:00:25.054Z,25.3
2022-11-16T01:01:27.625Z,25.4
2022-11-16T01:02:30.442Z,25.4
2022-11-16T01:03:32.640Z,25.5
2022-11-16T01:04:34.541Z,25.5
2022-11-16T01:05:37.070Z,25.6
2022-11-16T01:06:39.260Z,25.4
2022-11-16T01:07:41.739Z,25.3
2022-11-16T01:08:43.911Z,25.4
2022-11-16T01:09:46.597Z,25.5
2022-11-16T01:10:48.651Z,25.6
2022-11-16T01:11:51.135Z,25.5
2022-11-16T01:12:53.307Z,25.5
2022-11-16T01:13:55.493Z,25.6
2022-11-16T01:14:57.415Z,25.5
2022-11-16T01:15:59.608Z,25.5
2022-11-16T01:17:01.801Z,25.4
2022-11-16T01:18:04.010Z,25.5
2022-11-16T01:19:06.191Z,25.3
2022-11-16T01:20:08.797Z,25.6
2022-11-16T01:21:11.313Z,25.5
2022-11-16T01:22:13.213Z,25.6
2022-11-16T01:23:15.681Z,25.4
2022-11-16T01:24:17.885Z,25.5
2022-11-16T01:25:20.122Z,25.4
2022-11-16T01:26:22.599Z,25.4
2022-11-16T01:27:24.787Z,25.5
2022-11-16T01:28:26.717Z,25.5
2022-11-16T01:29:28.987Z,25.5
2022-11-16T01:30:30.955Z,25.4
2022-11-16T01:31:33.416Z,25.6
2022-11-16T01:32:35.889Z,25.6
2022-11-16T01:33:38.087Z,25.6
2022-11-16T01:34:40.261Z,25.5
2022-11-16T01:35:42.740Z,25.7
2022-11-16T01:36:44.981Z,25.6
2022-11-16T01:37:47.197Z,25.6
2022-11-16T01:38:48.900Z,25.8
2022-11-16T01:39:51.075Z,25.8
2022-11-16T01:40:53.582Z,25.5
2022-11-16T01:41:55.502Z,25.7
2022-11-16T01:42:57.693Z,25.8
2022-11-16T01:44:00.159Z,25.6
2022-11-16T01:45:02.358Z,25.7
2022-11-16T01:46:04.867Z,25.8
2022-11-16T01:47:07.337Z,25.6
2022-11-16T01:48:09.838Z,25.8
2022-11-16T01:49:12.299Z,25.6
2022-11-16T01:50:14.236Z,25.5
2022-11-16T01:51:16.161Z,25.5
2022-11-16T01:52:18.406Z,25.7
2022-11-16T01:53:20.604Z,25.6
2022-11-16T01:54:22.815Z,25.7
2022-11-16T01:55:25.004Z,25.6
2022-11-16T01:56:26.986Z,25.7
2022-11-16T01:57:28.633Z,25.7
2022-11-16T01:58:31.409Z,25.6
2022-11-16T01:59:35.541Z,25.7
2022-11-16T02:00:38.012Z,25.7
2022-11-16T02:01:40.283Z,25.8
2022-11-16T02:02:43.208Z,25.7
2022-11-16T02:03:45.411Z,25.7
2022-11-16T02:04:47.895Z,25.8
2022-11-16T02:05:50.369Z,25.7
2022-11-16T02:06:52.683Z,25.7
2022-11-16T02:07:54.949Z,25.8
2022-11-16T02:08:57.420Z,26
2022-11-16T02:09:59.886Z,25.9
2022-11-16T02:11:02.078Z,25.8
2022-11-16T02:12:04.586Z,25.7
2022-11-16T02:13:06.790Z,25.8
2022-11-16T02:14:08.705Z,25.9
2022-11-16T02:15:11.173Z,25.7
2022-11-16T02:16:13.634Z,25.9
2022-11-16T02:17:15.855Z,25.8
2022-11-16T02:18:17.473Z,25.7
2022-11-16T02:19:19.960Z,25.9
2022-11-16T02:20:22.644Z,26
2022-11-16T02:21:24.833Z,25.9
2022-11-16T02:22:27.029Z,25.9
2022-11-16T02:23:29.272Z,25.8
2022-11-16T02:24:31.463Z,25.9
2022-11-16T02:25:33.935Z,25.9
2022-11-16T02:26:36.404Z,25.7
2022-11-16T02:27:38.926Z,26
2022-11-16T02:28:41.132Z,26
2022-11-16T02:29:43.326Z,26
2022-11-16T02:30:45.227Z,25.9
2022-11-16T02:31:47.712Z,25.9
2022-11-16T02:32:49.937Z,26
2022-11-16T02:33:52.415Z,25.9
2022-11-16T02:34:54.336Z,26
2022-11-16T02:35:56.527Z,25.9
2022-11-16T02:36:58.736Z,25.9
2022-11-16T02:38:00.933Z,25.8
2022-11-16T02:39:03.450Z,25.9
2022-11-16T02:40:05.916Z,25.9
2022-11-16T02:41:07.839Z,26
2022-11-16T02:42:10.029Z,25.8
2022-11-16T02:43:12.282Z,25.9
2022-11-16T02:44:13.901Z,25.8
2022-11-16T02:45:16.120Z,25.9
2022-11-16T02:46:18.302Z,26
2022-11-16T02:47:20.228Z,25.8
2022-11-16T02:48:22.718Z,26.1
2022-11-16T02:49:25.203Z,25.8
2022-11-16T02:50:27.412Z,25.9
2022-11-16T02:51:29.627Z,25.8
2022-11-16T02:52:32.092Z,25.9
2022-11-16T02:53:34.301Z,25.9
2022-11-16T02:54:36.252Z,26
2022-11-16T02:55:38.164Z,25.8
2022-11-16T02:56:40.385Z,26
2022-11-16T02:57:42.602Z,25.9
2022-11-16T02:58:45.102Z,25.8
2022-11-16T02:59:47.571Z,26
2022-11-16T03:00:50.085Z,26.1
2022-11-16T03:01:52.602Z,25.8
2022-11-16T03:02:54.791Z,25.9
2022-11-16T03:03:57.315Z,26.1
2022-11-16T03:04:59.504Z,25.8
2022-11-16T03:06:01.985Z,25.9
2022-11-16T03:07:03.700Z,25.8
2022-11-16T03:08:06.422Z,25.9
2022-11-16T03:09:08.611Z,25.8
2022-11-16T03:10:10.889Z,26
2022-11-16T03:11:12.842Z,26
2022-11-16T03:12:15.315Z,25.9
2022-11-16T03:13:17.790Z,26
2022-11-16T03:14:20.321Z,26
2022-11-16T03:15:21.985Z,25.9
2022-11-16T03:16:24.455Z,26.1
2022-11-16T03:17:26.642Z,26
2022-11-16T03:18:28.550Z,26.1
2022-11-16T03:19:31.490Z,25.9
2022-11-16T03:20:34.053Z,26
2022-11-16T03:21:36.529Z,26
2022-11-16T03:22:38.743Z,26.2
2022-11-16T03:23:41.216Z,26.1
2022-11-16T03:24:43.681Z,26.1
2022-11-16T03:25:45.904Z,25.9
2022-11-16T03:26:47.529Z,26.1
2022-11-16T03:27:49.736Z,26
2022-11-16T03:28:52.204Z,25.8
2022-11-16T03:29:54.480Z,26.1
2022-11-16T03:30:56.948Z,25.9
2022-11-16T03:31:59.171Z,26
2022-11-16T03:33:01.364Z,26
2022-11-16T03:34:03.279Z,26.1
2022-11-16T03:35:05.503Z,26
2022-11-16T03:36:07.975Z,26
2022-11-16T03:37:10.444Z,25.9
2022-11-16T03:38:12.925Z,26.1
2022-11-16T03:39:15.153Z,26
2022-11-16T03:40:17.357Z,26
2022-11-16T03:41:19.589Z,26
2022-11-16T03:42:22.086Z,25.8
2022-11-16T03:43:24.556Z,26
2022-11-16T03:44:27.051Z,26.1
2022-11-16T03:45:29.566Z,26
2022-11-16T03:46:31.493Z,26
2022-11-16T03:47:33.432Z,26.1
2022-11-16T03:48:36.247Z,26.1
2022-11-16T03:49:39.105Z,26.1
2022-11-16T03:50:41.058Z,26
2022-11-16T03:51:43.266Z,26.1
2022-11-16T03:52:45.740Z,26.1
2022-11-16T03:53:47.938Z,26.2
2022-11-16T03:54:50.162Z,26
2022-11-16T03:55:52.336Z,26
2022-11-16T03:56:54.900Z,26
2022-11-16T03:57:56.821Z,26
2022-11-16T03:58:59.019Z,26
2022-11-16T04:00:01.551Z,26
2022-11-16T04:01:04.141Z,25.9
2022-11-16T04:02:07.088Z,26
2022-11-16T04:03:09.315Z,26
2022-11-16T04:04:12.273Z,26.1
2022-11-16T04:05:14.179Z,26
2022-11-16T04:06:16.134Z,26.1
2022-11-16T04:07:18.836Z,25.9
2022-11-16T04:08:21.509Z,26
2022-11-16T04:09:24.262Z,26.1
2022-11-16T04:10:26.767Z,25.8
2022-11-16T04:11:29.294Z,26
2022-11-16T04:12:31.841Z,25.7
2022-11-16T04:13:34.346Z,25.7
2022-11-16T04:14:36.541Z,25.9
2022-11-16T04:15:38.746Z,25.7
2022-11-16T04:16:40.992Z,25.6
2022-11-16T04:17:43.465Z,25.7
2022-11-16T04:18:45.691Z,25.7
2022-11-16T04:19:47.596Z,25.7
2022-11-16T04:20:54.052Z,25.7
2022-11-16T04:21:56.543Z,25.6
2022-11-16T04:22:58.743Z,25.7
2022-11-16T04:24:01.224Z,25.6
2022-11-16T04:25:03.743Z,25.6
2022-11-16T04:26:05.958Z,25.4
2022-11-16T04:27:08.445Z,25.6
2022-11-16T04:28:10.977Z,25.5
2022-11-16T04:29:13.178Z,25.5
2022-11-16T04:30:15.648Z,25.7
2022-11-16T04:31:17.870Z,25.5
2022-11-16T04:32:20.452Z,25.5
2022-11-16T04:33:22.665Z,25.6
2022-11-16T04:34:24.846Z,25.5
2022-11-16T04:35:27.059Z,25.4
2022-11-16T04:36:29.267Z,25.7
2022-11-16T04:37:31.233Z,25.5
2022-11-16T04:38:33.912Z,25.5
2022-11-16T04:39:37.734Z,25.5
2022-11-16T04:40:39.919Z,25.5
2022-11-16T04:41:42.406Z,25.5
2022-11-16T04:42:45.097Z,25.3
2022-11-16T04:43:47.612Z,25.5
2022-11-16T04:44:50.018Z,25.5
2022-11-16T04:45:52.840Z,25.3
2022-11-16T04:46:55.426Z,25.7
2022-11-16T04:47:57.946Z,25.3
2022-11-16T04:48:59.941Z,25.5
2022-11-16T04:50:02.309Z,25.5
2022-11-16T04:51:04.513Z,25.5
2022-11-16T04:52:06.712Z,25.3
2022-11-16T04:53:09.203Z,25.4
2022-11-16T04:54:11.418Z,25.4
2022-11-16T04:55:13.880Z,25.5
2022-11-16T04:56:16.087Z,25.3
2022-11-16T04:57:17.712Z,25.2
2022-11-16T04:58:19.358Z,25.4
2022-11-16T04:59:21.576Z,25.4
2022-11-16T05:00:24.114Z,25.4
2022-11-16T05:01:26.627Z,25.2
2022-11-16T05:02:29.495Z,25.3
2022-11-16T05:03:31.729Z,25.5
2022-11-16T05:04:33.664Z,25.4
2022-11-16T05:05:36.127Z,25.2
2022-11-16T05:06:38.323Z,25.2
2022-11-16T05:07:40.240Z,25.3
2022-11-16T05:08:42.469Z,25.3
2022-11-16T05:09:44.641Z,25.4
2022-11-16T05:10:47.117Z,25.5
2022-11-16T05:11:49.305Z,25.2
2022-11-16T05:12:51.516Z,25.4
2022-11-16T05:13:53.988Z,25.4
2022-11-16T05:14:56.233Z,25.3
2022-11-16T05:15:57.930Z,25.3
2022-11-16T05:17:00.403Z,25.3
2022-11-16T05:18:02.868Z,25.4
2022-11-16T05:19:05.116Z,25.2
2022-11-16T05:20:07.593Z,25.4
2022-11-16T05:21:09.765Z,25.4
2022-11-16T05:22:11.684Z,25.3
2022-11-16T05:23:14.147Z,25.3
2022-11-16T05:24:15.804Z,25.4
2022-11-16T05:25:17.725Z,25.3
2022-11-16T05:26:19.941Z,25.5
2022-11-16T05:27:21.881Z,25.3
2022-11-16T05:28:24.073Z,25.4
2022-11-16T05:29:26.269Z,25.4
2022-11-16T05:30:28.798Z,25.3
2022-11-16T05:31:32.256Z,25.3
2022-11-16T05:32:36.027Z,25.1
2022-11-16T05:33:38.220Z,25.2
2022-11-16T05:34:40.463Z,25.2
2022-11-16T05:35:42.671Z,25.3
2022-11-16T05:36:45.141Z,25.1
2022-11-16T05:37:47.617Z,25.3
2022-11-16T05:38:53.875Z,25.2
2022-11-16T05:39:55.095Z,25.3
2022-11-16T05:40:57.691Z,25.3
2022-11-16T05:41:59.885Z,25.3
2022-11-16T05:43:02.362Z,25.4
2022-11-16T05:44:04.282Z,25.3
2022-11-16T05:45:06.494Z,25.3
2022-11-16T05:46:09.008Z,25.3
2022-11-16T05:47:11.207Z,25.3
2022-11-16T05:48:13.418Z,25.2
2022-11-16T05:49:15.886Z,25.3
2022-11-16T05:50:18.135Z,25.3
2022-11-16T05:51:20.685Z,25.2
2022-11-16T05:52:23.175Z,25.3
2022-11-16T05:53:25.648Z,25.3
2022-11-16T05:54:28.145Z,25.3
2022-11-16T05:55:30.641Z,25.3
2022-11-16T05:56:33.146Z,25.3
2022-11-16T05:57:36.039Z,25.3
2022-11-16T05:58:38.243Z,25.3
2022-11-16T05:59:40.448Z,25.1
2022-11-16T06:00:42.928Z,25.5
2022-11-16T06:01:45.437Z,25
2022-11-16T06:02:47.953Z,25.1
2022-11-16T06:03:50.410Z,25.2
2022-11-16T06:04:52.434Z,25.1
2022-11-16T06:05:55.127Z,25.3
2022-11-16T06:06:57.642Z,25.1
2022-11-16T06:08:00.141Z,25.1
2022-11-16T06:09:02.338Z,25.1
2022-11-16T06:10:04.837Z,25.1
2022-11-16T06:11:07.132Z,25.1
2022-11-16T06:12:09.348Z,25.2
2022-11-16T06:13:11.553Z,25.2
2022-11-16T06:14:13.744Z,25.1
2022-11-16T06:15:16.215Z,25.3
2022-11-16T06:16:19.014Z,25.3
2022-11-16T06:17:22.729Z,25.3
2022-11-16T06:18:25.204Z,25.2
2022-11-16T06:19:32.117Z,25.2
2022-11-16T06:20:32.699Z,25.3
2022-11-16T06:21:34.735Z,25.2
2022-11-16T06:22:36.642Z,25.2
2022-11-16T06:23:39.117Z,25
2022-11-16T06:24:41.043Z,25.3
2022-11-16T06:25:43.509Z,25.3
2022-11-16T06:26:45.686Z,25.2
2022-11-16T06:27:48.168Z,25.3
2022-11-16T06:28:50.643Z,25.1
2022-11-16T06:29:52.840Z,25.2
2022-11-16T06:30:55.056Z,25.1
2022-11-16T06:31:57.382Z,25.2
2022-11-16T06:33:01.035Z,25.2
2022-11-16T06:34:03.523Z,25.3
2022-11-16T06:35:06.004Z,25.2
2022-11-16T06:36:08.210Z,25.2
2022-11-16T06:37:10.703Z,25.1
2022-11-16T06:38:12.893Z,25.3
2022-11-16T06:39:15.369Z,25.1
2022-11-16T06:40:17.573Z,25.2
2022-11-16T06:41:19.789Z,25.2
2022-11-16T06:42:21.968Z,25.1
2022-11-16T06:43:24.487Z,25.2
2022-11-16T06:44:26.955Z,25.1
2022-11-16T06:45:29.151Z,25.2
2022-11-16T06:46:31.623Z,25.1
2022-11-16T06:47:34.102Z,25.2
2022-11-16T06:48:37.452Z,25.1
2022-11-16T06:49:39.901Z,25.1
2022-11-16T06:50:42.101Z,25
2022-11-16T06:51:44.595Z,25.1
2022-11-16T06:52:46.785Z,25.2
2022-11-16T06:53:49.261Z,25.3
2022-11-16T06:54:51.734Z,25.3
2022-11-16T06:55:53.948Z,25.1
2022-11-16T06:56:56.423Z,25.1
2022-11-16T06:57:58.901Z,25.3
2022-11-16T06:59:01.372Z,25.1
2022-11-16T07:00:03.572Z,25.2
2022-11-16T07:01:05.748Z,25.1
2022-11-16T07:02:08.017Z,25.2
2022-11-16T07:03:10.918Z,25.2
2022-11-16T07:04:13.660Z,25.1
2022-11-16T07:05:15.575Z,25.1
2022-11-16T07:06:18.071Z,25.1
2022-11-16T07:07:20.501Z,25
2022-11-16T07:08:23.428Z,25.1
2022-11-16T07:09:25.891Z,25.2
2022-11-16T07:10:28.368Z,25.2
2022-11-16T07:11:30.381Z,25.1
2022-11-16T07:12:32.557Z,25
2022-11-16T07:13:34.810Z,25.1
2022-11-16T07:14:37.292Z,25
2022-11-16T07:15:39.849Z,25.1
2022-11-16T07:16:42.327Z,25.2
2022-11-16T07:17:44.809Z,25
2022-11-16T07:18:47.405Z,25.1
2022-11-16T07:19:50.927Z,25
2022-11-16T07:20:53.137Z,25.2
2022-11-16T07:21:55.618Z,25.1
2022-11-16T07:22:58.109Z,25
2022-11-16T07:24:00.299Z,25.1
2022-11-16T07:25:02.768Z,24.9
2022-11-16T07:26:05.261Z,25.1
2022-11-16T07:27:07.566Z,25
2022-11-16T07:28:10.076Z,25
2022-11-16T07:29:12.587Z,25.1
2022-11-16T07:30:15.079Z,24.9
2022-11-16T07:31:17.317Z,25.1
2022-11-16T07:32:19.558Z,25
2022-11-16T07:33:21.205Z,24.9
2022-11-16T07:34:24.015Z,25
2022-11-16T07:35:27.165Z,25
2022-11-16T07:36:29.383Z,25
2022-11-16T07:37:31.578Z,25.3
2022-11-16T07:38:33.778Z,24.9
2022-11-16T07:39:37.647Z,25
2022-11-16T07:40:40.126Z,25
2022-11-16T07:41:42.613Z,24.9
2022-11-16T07:42:45.091Z,24.9
2022-11-16T07:43:52.734Z,24.9
2022-11-16T07:44:52.385Z,24.8
2022-11-16T07:45:55.697Z,25.1
2022-11-16T07:46:59.575Z,25
2022-11-16T07:48:01.500Z,25
2022-11-16T07:49:07.106Z,25
2022-11-16T07:50:08.427Z,25
2022-11-16T07:51:11.378Z,24.9
2022-11-16T07:52:13.567Z,25.1
2022-11-16T07:53:15.773Z,25
2022-11-16T07:54:18.295Z,25
2022-11-16T07:55:20.774Z,25.1
2022-11-16T07:56:23.245Z,25
2022-11-16T07:57:25.728Z,25.1
2022-11-16T07:58:28.211Z,25
2022-11-16T07:59:30.776Z,25
2022-11-16T08:00:33.256Z,25
2022-11-16T08:01:35.792Z,25.2
2022-11-16T08:02:37.750Z,25.1
2022-11-16T08:03:39.974Z,25.1
2022-11-16T08:04:42.478Z,25.1
2022-11-16T08:05:44.991Z,24.9
2022-11-16T08:06:47.829Z,25
2022-11-16T08:07:50.715Z,25
2022-11-16T08:08:57.932Z,25
2022-11-16T08:09:58.200Z,25
2022-11-16T08:11:00.685Z,25.1
2022-11-16T08:12:02.908Z,25
2022-11-16T08:13:05.767Z,25
2022-11-16T08:14:08.241Z,25
2022-11-16T08:15:10.726Z,25.1
2022-11-16T08:16:12.951Z,25.1
2022-11-16T08:17:15.161Z,25.1
2022-11-16T08:18:17.449Z,25.2
2022-11-16T08:19:19.923Z,25
2022-11-16T08:20:22.416Z,25.1
2022-11-16T08:21:24.733Z,25
2022-11-16T08:22:27.701Z,25.1
2022-11-16T08:23:29.634Z,25
2022-11-16T08:24:32.119Z,25
2022-11-16T08:25:34.613Z,25
2022-11-16T08:26:36.799Z,25.1
2022-11-16T08:27:38.726Z,25
2022-11-16T08:28:41.215Z,25.2
2022-11-16T08:29:43.447Z,25.2
2022-11-16T08:30:49.640Z,25.1
2022-11-16T08:31:50.981Z,25.1
2022-11-16T08:32:53.500Z,25
2022-11-16T08:33:55.974Z,24.9
2022-11-16T08:34:58.404Z,25.2
2022-11-16T08:36:00.610Z,25.2
2022-11-16T08:37:03.127Z,25.1
2022-11-16T08:38:05.996Z,25
2022-11-16T08:39:08.208Z,25
2022-11-16T08:40:10.417Z,25
2022-11-16T08:41:12.327Z,25.1
2022-11-16T08:42:14.260Z,25
2022-11-16T08:43:16.470Z,25.1
2022-11-16T08:44:19.345Z,24.9
2022-11-16T08:45:21.848Z,24.9
2022-11-16T08:46:24.136Z,25
2022-11-16T08:47:26.367Z,25
2022-11-16T08:48:28.277Z,25.1
2022-11-16T08:49:30.486Z,25.1
2022-11-16T08:50:39.829Z,25
2022-11-16T08:51:37.697Z,25.1
2022-11-16T08:52:40.220Z,25
2022-11-16T08:53:43.102Z,25.1
2022-11-16T08:54:45.330Z,25
2022-11-16T08:55:47.532Z,25
2022-11-16T08:56:49.463Z,25
2022-11-16T08:57:51.960Z,25.1
2022-11-16T08:58:58.345Z,25.1
2022-11-16T08:59:59.193Z,25
2022-11-16T09:01:01.399Z,24.9
2022-11-16T09:02:03.648Z,25.1
2022-11-16T09:03:06.175Z,25.1
2022-11-16T09:04:08.357Z,25.1
2022-11-16T09:05:10.559Z,24.9
2022-11-16T09:06:13.060Z,25.1
2022-11-16T09:07:15.605Z,25
2022-11-16T09:08:18.470Z,25
2022-11-16T09:09:21.427Z,25
2022-11-16T09:10:23.713Z,25.1
2022-11-16T09:11:26.064Z,25.2
2022-11-16T09:12:27.976Z,25
2022-11-16T09:13:30.190Z,25
2022-11-16T09:14:32.108Z,25.1
2022-11-16T09:15:34.045Z,25.2
2022-11-16T09:16:36.537Z,25.1
2022-11-16T09:17:39.031Z,25.1
2022-11-16T09:18:41.532Z,25.1
2022-11-16T09:19:44.011Z,25.2
2022-11-16T09:20:46.204Z,25
2022-11-16T09:21:48.704Z,25
2022-11-16T09:22:50.965Z,24.9
2022-11-16T09:23:53.313Z,24.9
2022-11-16T09:24:56.202Z,25.2
2022-11-16T09:25:58.139Z,25
2022-11-16T09:27:00.652Z,25
2022-11-16T09:28:02.911Z,25
2022-11-16T09:29:05.134Z,25
2022-11-16T09:30:07.609Z,25
2022-11-16T09:31:09.837Z,24.9
2022-11-16T09:32:12.122Z,25.2
2022-11-16T09:33:14.337Z,24.9
2022-11-16T09:34:16.552Z,24.9
2022-11-16T09:35:18.754Z,25.1
2022-11-16T09:36:21.298Z,25
2022-11-16T09:37:23.780Z,24.8
2022-11-16T09:38:40.105Z,25
2022-11-16T09:39:31.936Z,25
2022-11-16T09:40:35.084Z,25
2022-11-16T09:41:37.310Z,25
2022-11-16T09:42:39.796Z,25
2022-11-16T09:43:45.675Z,25.1
2022-11-16T09:44:46.735Z,25.2
2022-11-16T09:45:49.236Z,25.1
2022-11-16T09:46:51.728Z,25
2022-11-16T09:47:53.959Z,25
2022-11-16T09:48:56.155Z,25
2022-11-16T09:50:02.846Z,25.1
2022-11-16T09:51:03.356Z,25
2022-11-16T09:52:05.397Z,24.9
2022-11-16T09:53:07.075Z,24.9
2022-11-16T09:54:09.569Z,24.9
2022-11-16T09:55:15.994Z,25.1
2022-11-16T09:56:21.791Z,25.1
2022-11-16T09:57:22.039Z,25.1
2022-11-16T09:58:24.892Z,24.9
2022-11-16T09:59:27.419Z,25
2022-11-16T10:00:29.989Z,25
2022-11-16T10:01:32.353Z,24.9
2022-11-16T10:02:34.615Z,25
2022-11-16T10:03:37.264Z,25
2022-11-16T10:04:39.830Z,25
2022-11-16T10:05:41.761Z,25.1
2022-11-16T10:06:43.941Z,24.9
2022-11-16T10:07:45.878Z,24.9
2022-11-16T10:08:48.356Z,24.9
2022-11-16T10:09:50.576Z,25
2022-11-16T10:10:52.996Z,25
2022-11-16T10:11:55.511Z,25
2022-11-16T10:12:58.008Z,24.9
2022-11-16T10:14:04.141Z,25.1
2022-11-16T10:15:05.680Z,24.9
2022-11-16T10:16:07.592Z,25
2022-11-16T10:17:09.846Z,24.9
2022-11-16T10:18:12.036Z,25
2022-11-16T10:19:13.712Z,24.9
2022-11-16T10:20:16.186Z,25
2022-11-16T10:21:18.667Z,24.9
2022-11-16T10:22:20.891Z,25
2022-11-16T10:23:23.382Z,24.9
2022-11-16T10:24:25.868Z,24.8
2022-11-16T10:25:28.363Z,24.9
2022-11-16T10:26:30.403Z,24.9
2022-11-16T10:27:32.613Z,25
2022-11-16T10:28:34.838Z,25.1
2022-11-16T10:29:37.605Z,24.9
2022-11-16T10:30:40.102Z,24.9
2022-11-16T10:31:42.612Z,25
2022-11-16T10:32:44.829Z,24.9
2022-11-16T10:33:47.056Z,24.9
2022-11-16T10:34:49.281Z,25.1
2022-11-16T10:35:51.201Z,24.9
2022-11-16T10:36:53.688Z,25.1
2022-11-16T10:37:55.899Z,25.1
2022-11-16T10:38:58.372Z,25
2022-11-16T10:40:00.286Z,25.1
2022-11-16T10:41:02.800Z,25.2
2022-11-16T10:42:07.572Z,25
2022-11-16T10:43:10.351Z,24.9
2022-11-16T10:44:12.566Z,25
2022-11-16T10:45:15.333Z,24.8
2022-11-16T10:46:17.518Z,25
2022-11-16T10:47:20.110Z,25.2
2022-11-16T10:48:22.055Z,24.9
2022-11-16T10:49:24.595Z,25
2022-11-16T10:50:26.550Z,24.8
2022-11-16T10:51:28.478Z,25
2022-11-16T10:52:30.694Z,24.9
2022-11-16T10:53:33.532Z,24.9
2022-11-16T10:54:42.927Z,24.9
2022-11-16T10:55:42.843Z,25
2022-11-16T10:56:45.323Z,25
2022-11-16T10:57:47.924Z,25.1
2022-11-16T10:58:50.151Z,25.1
2022-11-16T10:59:52.347Z,24.9
2022-11-16T11:00:55.133Z,25.1
2022-11-16T11:01:57.544Z,25.1
2022-11-16T11:02:59.759Z,25
2022-11-16T11:04:01.958Z,25.1
2022-11-16T11:05:03.885Z,25
2022-11-16T11:06:05.814Z,25.3
2022-11-16T11:07:08.302Z,24.9
2022-11-16T11:08:10.714Z,25
2022-11-16T11:09:13.201Z,25
2022-11-16T11:10:15.140Z,25
2022-11-16T11:11:17.449Z,25
2022-11-16T11:12:19.671Z,25
2022-11-16T11:13:21.893Z,25
2022-11-16T11:14:24.375Z,25
2022-11-16T11:15:26.674Z,25
2022-11-16T11:16:29.730Z,25
2022-11-16T11:17:32.204Z,25
2022-11-16T11:18:34.679Z,24.9
2022-11-16T11:19:36.875Z,25.2
2022-11-16T11:20:43.247Z,25.2
2022-11-16T11:21:44.082Z,25
2022-11-16T11:22:46.556Z,24.9
2022-11-16T11:23:48.734Z,25
2022-11-16T11:24:51.247Z,25
2022-11-16T11:25:53.739Z,25.1
2022-11-16T11:26:55.665Z,25
2022-11-16T11:27:58.154Z,25
2022-11-16T11:29:00.442Z,25
2022-11-16T11:30:02.644Z,24.9
2022-11-16T11:31:04.678Z,25.1
2022-11-16T11:32:07.652Z,25
2022-11-16T11:33:10.127Z,25.1
2022-11-16T11:34:12.620Z,24.9
2022-11-16T11:35:14.839Z,25.1
2022-11-16T11:36:16.763Z,25
2022-11-16T11:37:18.753Z,25
2022-11-16T11:38:20.990Z,25.1
2022-11-16T11:39:23.201Z,25.1
2022-11-16T11:40:25.473Z,25.1
2022-11-16T11:41:27.107Z,25.1
2022-11-16T11:42:29.593Z,25
2022-11-16T11:43:32.118Z,24.9
2022-11-16T11:44:36.737Z,25.2
2022-11-16T11:45:39.197Z,25
2022-11-16T11:47:18.582Z,25.1
2022-11-16T11:48:01.658Z,25
2022-11-16T11:48:51.379Z,25.1
2022-11-16T11:49:54.172Z,25
2022-11-16T11:50:56.108Z,25.1
2022-11-16T11:51:58.319Z,25
2022-11-16T11:53:00.525Z,25
2022-11-16T11:54:02.731Z,25
2022-11-16T11:55:05.222Z,25
2022-11-16T11:56:07.422Z,25
2022-11-16T11:57:09.634Z,25
2022-11-16T11:58:12.123Z,25
2022-11-16T11:59:14.656Z,24.9
2022-11-16T12:00:17.162Z,24.9
2022-11-16T12:01:24.987Z,25
2022-11-16T12:02:24.624Z,25.1
2022-11-16T12:03:26.841Z,24.8
2022-11-16T12:04:28.787Z,25
2022-11-16T12:05:31.459Z,25
2022-11-16T12:06:33.691Z,25
2022-11-16T12:07:40.160Z,25
2022-11-16T12:08:42.809Z,24.9
2022-11-16T12:09:45.027Z,25
2022-11-16T12:10:46.962Z,25
2022-11-16T12:11:49.173Z,25
2022-11-16T12:12:51.398Z,25
2022-11-16T12:13:53.600Z,25
2022-11-16T12:14:56.175Z,24.9
2022-11-16T12:15:57.972Z,24.9
2022-11-16T12:17:00.455Z,24.9
2022-11-16T12:18:02.948Z,25
2022-11-16T12:19:05.453Z,24.8
2022-11-16T12:20:07.691Z,25
2022-11-16T12:21:10.442Z,24.9
2022-11-16T12:22:12.667Z,25
2022-11-16T12:23:14.901Z,25.1
2022-11-16T12:24:17.423Z,24.9
2022-11-16T12:25:19.349Z,24.9
2022-11-16T12:26:21.015Z,25.1
2022-11-16T12:27:23.267Z,25.1
2022-11-16T12:28:25.613Z,24.9
2022-11-16T12:29:28.096Z,24.8
2022-11-16T12:30:30.575Z,24.9
2022-11-16T12:31:33.190Z,25.1
2022-11-16T12:32:35.749Z,25
2022-11-16T12:33:38.871Z,24.9
2022-11-16T12:34:41.354Z,25.1
2022-11-16T12:35:43.857Z,25
2022-11-16T12:36:46.658Z,24.9
2022-11-16T12:37:48.841Z,25
2022-11-16T12:38:51.358Z,24.9
2022-11-16T12:39:53.838Z,25
2022-11-16T12:40:56.314Z,24.9
2022-11-16T12:41:58.792Z,25
2022-11-16T12:43:01.294Z,25
2022-11-16T12:44:03.806Z,25.1
2022-11-16T12:45:06.308Z,25
2022-11-16T12:46:08.513Z,25
2022-11-16T12:47:11.039Z,24.9
2022-11-16T12:48:13.232Z,25.2
2022-11-16T12:49:15.563Z,25.1
2022-11-16T12:50:18.044Z,25
2022-11-16T12:51:19.970Z,24.9
2022-11-16T12:52:27.183Z,25
2022-11-16T12:53:29.386Z,24.9
2022-11-16T12:54:32.769Z,24.9
2022-11-16T12:55:34.964Z,25.1
2022-11-16T12:56:37.481Z,25
2022-11-16T12:57:41.978Z,25
2022-11-16T12:58:44.231Z,25
2022-11-16T12:59:46.723Z,24.9
2022-11-16T13:00:49.009Z,24.8
2022-11-16T13:01:54.045Z,25.1
2022-11-16T13:02:56.978Z,24.9
2022-11-16T13:03:58.888Z,25
2022-11-16T13:05:01.092Z,24.9
2022-11-16T13:06:03.574Z,24.9
2022-11-16T13:07:10.602Z,25
2022-11-16T13:08:10.777Z,24.9
2022-11-16T13:09:13.625Z,24.9
2022-11-16T13:10:16.109Z,24.9
2022-11-16T13:11:18.599Z,25
2022-11-16T13:12:20.511Z,24.8
2022-11-16T13:13:35.774Z,25
2022-11-16T13:14:27.987Z,25
2022-11-16T13:15:30.199Z,24.9
2022-11-16T13:16:32.137Z,25
2022-11-16T13:17:34.322Z,25.1
2022-11-16T13:18:36.925Z,25.1
2022-11-16T13:19:39.401Z,24.9
2022-11-16T13:20:41.581Z,25
2022-11-16T13:21:44.076Z,25
2022-11-16T13:22:46.545Z,25
2022-11-16T13:23:49.030Z,25
2022-11-16T13:24:51.779Z,25
2022-11-16T13:25:54.310Z,24.9
2022-11-16T13:26:56.519Z,25
2022-11-16T13:27:58.993Z,25
2022-11-16T13:29:01.474Z,25
2022-11-16T13:30:03.673Z,24.9
2022-11-16T13:31:06.156Z,25
2022-11-16T13:32:08.630Z,25.1
2022-11-16T13:33:10.568Z,25
2022-11-16T13:34:12.896Z,25.1
2022-11-16T13:35:15.378Z,24.9
2022-11-16T13:36:17.310Z,25
2022-11-16T13:37:19.842Z,25.1
2022-11-16T13:38:22.337Z,25
2022-11-16T13:39:24.829Z,25.1
2022-11-16T13:40:27.496Z,25
2022-11-16T13:41:29.678Z,25.2
2022-11-16T13:42:31.882Z,25
2022-11-16T13:43:34.173Z,25
2022-11-16T13:44:36.373Z,25.1
2022-11-16T13:45:38.584Z,25.1
2022-11-16T13:46:55.129Z,24.9
2022-11-16T13:47:46.053Z,25
2022-11-16T13:48:48.254Z,25
2022-11-16T13:49:50.781Z,25
2022-11-16T13:50:52.705Z,25
2022-11-16T13:51:54.961Z,25
2022-11-16T13:54:43.753Z,25.2
2022-11-16T13:55:06.860Z,25.1
2022-11-16T13:56:09.530Z,25
2022-11-16T13:57:11.465Z,25
2022-11-16T13:58:13.940Z,25
2022-11-16T13:59:16.340Z,25
2022-11-16T14:00:18.297Z,25
2022-11-16T14:01:20.814Z,25.1
2022-11-16T14:02:24.732Z,25.1
2022-11-16T14:03:27.204Z,25.1
2022-11-16T14:04:29.704Z,24.9
2022-11-16T14:05:31.835Z,25
2022-11-16T14:06:34.053Z,25
2022-11-16T14:07:36.008Z,25.2
2022-11-16T14:08:38.499Z,24.9